Time;durP1;ratioP1;P1;durP2;ratioP2;P2;SDS_P1;SDS_P2;PMS_P1;PMS_P2;Temp;Humidity;BMP_temperature;BMP_pressure;BME280_temperature;BME280_humidity;BME280_pressure;Samples;Min_cycle;Max_cycle;Signal;HPM_P1;HPM_P2
2022/01/13 00:00:33;;;;;;;0.10;0.10;;;;;;;;;;4858178;29;20331;-88
2022/01/13 00:02:58;;;;;;;0.10;0.10;;;;;;;;;;4827753;29;20069;-88
2022/01/13 00:05:28;;;;;;;0.10;0.10;;;;;;;;;;4858292;29;20042;-89
2022/01/13 00:07:58;;;;;;;0.40;0.10;;;;;;;;;;4812946;29;20500;-88
2022/01/13 00:10:27;;;;;;;0.52;0.52;;;;;;;;;;4828183;29;20110;-88
2022/01/13 00:13:05;;;;;;;0.10;0.10;;;;;;;;;;4827713;29;20061;-89
2022/01/13 00:15:41;;;;;;;0.25;0.25;;;;;;;;;;4857928;29;20145;-88
2022/01/13 00:18:29;;;;;;;0.10;0.10;;;;;;;;;;4813879;29;20136;-89
2022/01/13 00:21:14;;;;;;;0.10;0.10;;;;;;;;;;4814974;29;20049;-87
2022/01/13 00:23:43;;;;;;;0.10;0.10;;;;;;;;;;4830183;29;20483;-88
2022/01/13 00:26:15;;;;;;;0.10;0.10;;;;;;;;;;4813045;29;20056;-88
2022/01/13 00:28:44;;;;;;;0.10;0.10;;;;;;;;;;4816635;29;20038;-88
2022/01/13 00:31:10;;;;;;;0.55;0.55;;;;;;;;;;4831269;29;20101;-87
2022/01/13 00:33:36;;;;;;;0.10;0.10;;;;;;;;;;4830854;29;20136;-88
2022/01/13 00:36:02;;;;;;;9.18;0.35;;;;;;;;;;4830975;29;20447;-88
2022/01/13 00:38:28;;;;;;;0.10;0.10;;;;;;;;;;4830607;29;20046;-87
2022/01/13 00:40:54;;;;;;;0.10;0.10;;;;;;;;;;4830852;29;20057;-88
2022/01/13 00:43:20;;;;;;;0.10;0.10;;;;;;;;;;4830854;29;20079;-88
2022/01/13 00:45:48;;;;;;;0.10;0.10;;;;;;;;;;4830803;29;20045;-88
2022/01/13 00:48:14;;;;;;;0.10;0.10;;;;;;;;;;4830807;29;20056;-88
2022/01/13 00:50:39;;;;;;;0.10;0.10;;;;;;;;;;4830621;29;20505;-88
2022/01/13 00:53:05;;;;;;;0.10;0.10;;;;;;;;;;4861315;29;20081;-87
2022/01/13 00:55:47;;;;;;;0.10;0.10;;;;;;;;;;4830398;29;20085;-88
2022/01/13 00:58:13;;;;;;;0.10;0.10;;;;;;;;;;4830579;29;20045;-88
2022/01/13 01:00:40;;;;;;;0.10;0.10;;;;;;;;;;4830313;29;20057;-88
2022/01/13 01:03:07;;;;;;;0.10;0.10;;;;;;;;;;4830419;29;20045;-88
2022/01/13 01:05:34;;;;;;;0.10;0.10;;;;;;;;;;4815798;29;20097;-87
2022/01/13 01:08:00;;;;;;;0.10;0.10;;;;;;;;;;4830576;29;20045;-88
2022/01/13 01:10:26;;;;;;;0.10;0.10;;;;;;;;;;4830408;29;20048;-87
2022/01/13 01:12:52;;;;;;;0.10;0.10;;;;;;;;;;4860798;29;20042;-88
2022/01/13 01:15:18;;;;;;;0.10;0.10;;;;;;;;;;4830325;29;20498;-87
2022/01/13 01:17:49;;;;;;;0.10;0.10;;;;;;;;;;4815089;29;20623;-87
2022/01/13 01:20:16;;;;;;;0.10;0.10;;;;;;;;;;4829958;29;20138;-88
2022/01/13 01:27:57;;;;;;;0.10;0.10;;;;;;;;;;4847052;29;20513;-88
2022/01/13 01:30:32;;;;;;;0.00;0.00;;;;;;;;;;4830267;29;20045;-88
2022/01/13 01:32:58;;;;;;;0.10;0.10;;;;;;;;;;4831056;29;20045;-88
2022/01/13 01:35:26;;;;;;;0.10;0.10;;;;;;;;;;4830056;29;20068;-89
2022/01/13 01:37:52;;;;;;;0.10;0.10;;;;;;;;;;4814761;29;20041;-90
2022/01/13 01:40:20;;;;;;;0.10;0.10;;;;;;;;;;4829498;29;20064;-85
2022/01/13 01:42:46;;;;;;;0.98;0.20;;;;;;;;;;4829670;29;20109;-87
2022/01/13 01:45:13;;;;;;;0.10;0.10;;;;;;;;;;4829579;29;20045;-86
2022/01/13 01:47:40;;;;;;;0.10;0.10;;;;;;;;;;4814673;29;20051;-87
2022/01/13 01:50:17;;;;;;;0.10;0.10;;;;;;;;;;4860147;29;20045;-87
2022/01/13 01:52:43;;;;;;;0.40;0.40;;;;;;;;;;4829493;29;20045;-89
2022/01/13 01:55:09;;;;;;;0.10;0.10;;;;;;;;;;4829591;29;20045;-87
2022/01/13 01:57:35;;;;;;;0.10;0.10;;;;;;;;;;4829281;29;20045;-87
2022/01/13 02:00:02;;;;;;;0.10;0.10;;;;;;;;;;4829420;29;20069;-87
2022/01/13 02:02:29;;;;;;;0.10;0.10;;;;;;;;;;4859928;29;20183;-87
2022/01/13 02:04:55;;;;;;;0.10;0.10;;;;;;;;;;4829600;29;20077;-87
2022/01/13 02:07:21;;;;;;;0.10;0.10;;;;;;;;;;4829271;29;20406;-86
2022/01/13 02:09:51;;;;;;;0.10;0.10;;;;;;;;;;4859723;29;20037;-87
2022/01/13 02:12:29;;;;;;;0.57;0.17;;;;;;;;;;4829196;29;20101;-87
2022/01/13 02:17:39;;;;;;;0.10;0.10;;;;;;;;;;4846263;29;20057;-88
2022/01/13 02:20:06;;;;;;;0.10;0.10;;;;;;;;;;4829103;29;20619;-88
2022/01/13 02:22:32;;;;;;;0.10;0.10;;;;;;;;;;4828937;29;20106;-88
2022/01/13 02:24:58;;;;;;;0.17;0.17;;;;;;;;;;4814275;29;20053;-87
2022/01/13 02:27:24;;;;;;;0.10;0.10;;;;;;;;;;4813923;29;20375;-88
2022/01/13 02:29:50;;;;;;;0.10;0.10;;;;;;;;;;4813894;29;20132;-86
2022/01/13 02:32:16;;;;;;;0.10;0.10;;;;;;;;;;4828778;29;20117;-87
2022/01/13 02:34:42;;;;;;;0.22;0.22;;;;;;;;;;4859365;29;20056;-87
2022/01/13 02:37:08;;;;;;;0.10;0.10;;;;;;;;;;4828873;29;20395;-87
2022/01/13 02:39:34;;;;;;;0.10;0.10;;;;;;;;;;4813597;29;20038;-88
2022/01/13 02:42:00;;;;;;;0.10;0.10;;;;;;;;;;4859065;29;20517;-88
2022/01/13 02:44:26;;;;;;;0.10;0.10;;;;;;;;;;4813620;29;20124;-88
2022/01/13 02:49:22;;;;;;;0.10;0.10;;;;;;;;;;4843477;29;20057;-87
2022/01/13 02:51:49;;;;;;;0.10;0.10;;;;;;;;;;4828045;29;20504;-87
2022/01/13 02:54:15;;;;;;;0.10;0.10;;;;;;;;;;4813408;29;20127;-87
2022/01/13 02:56:42;;;;;;;0.10;0.10;;;;;;;;;;4828382;29;20045;-86
2022/01/13 02:59:08;;;;;;;0.10;0.10;;;;;;;;;;4828734;29;20050;-87
2022/01/13 03:01:34;;;;;;;0.38;0.35;;;;;;;;;;4828424;29;20486;-87
2022/01/13 03:04:04;;;;;;;0.10;0.10;;;;;;;;;;4859338;29;20402;-87
2022/01/13 03:06:35;;;;;;;0.10;0.10;;;;;;;;;;4829086;29;20088;-87
2022/01/13 03:09:03;;;;;;;0.10;0.10;;;;;;;;;;4829266;29;20210;-87
2022/01/13 03:11:37;;;;;;;0.08;0.08;;;;;;;;;;4828752;29;20053;-87
2022/01/13 03:14:03;;;;;;;0.10;0.10;;;;;;;;;;4814227;29;20053;-87
2022/01/13 03:16:30;;;;;;;0.10;0.10;;;;;;;;;;4828539;29;20096;-88
2022/01/13 03:18:56;;;;;;;0.10;0.10;;;;;;;;;;4828300;29;20049;-88
2022/01/13 03:21:22;;;;;;;0.10;0.10;;;;;;;;;;4828035;29;20129;-88
2022/01/13 03:23:48;;;;;;;0.15;0.15;;;;;;;;;;4827948;29;20522;-88
2022/01/13 03:26:14;;;;;;;0.10;0.10;;;;;;;;;;4812965;29;20481;-87
2022/01/13 03:28:55;;;;;;;0.10;0.10;;;;;;;;;;4828249;29;20034;-88
2022/01/13 03:31:22;;;;;;;0.00;0.00;;;;;;;;;;4827840;29;20068;-87
2022/01/13 03:33:47;;;;;;;0.10;0.10;;;;;;;;;;4828051;29;20052;-87
2022/01/13 03:36:14;;;;;;;0.10;0.10;;;;;;;;;;4828169;29;20046;-87
2022/01/13 03:38:40;;;;;;;0.00;0.00;;;;;;;;;;4827975;29;20052;-87
2022/01/13 03:41:06;;;;;;;0.10;0.10;;;;;;;;;;4827838;29;20065;-88
2022/01/13 03:43:35;;;;;;;0.10;0.10;;;;;;;;;;4828352;29;20068;-87
2022/01/13 03:46:01;;;;;;;0.10;0.10;;;;;;;;;;4813058;29;20049;-88
2022/01/13 03:48:27;;;;;;;0.00;0.00;;;;;;;;;;4828038;29;20526;-87
2022/01/13 03:50:53;;;;;;;0.10;0.10;;;;;;;;;;4827985;29;20451;-88
2022/01/13 03:53:28;;;;;;;0.10;0.10;;;;;;;;;;4858331;29;20045;-88
2022/01/13 03:55:54;;;;;;;0.10;0.10;;;;;;;;;;4858594;29;20092;-88
2022/01/13 03:58:26;;;;;;;0.10;0.10;;;;;;;;;;4858430;29;20087;-87
2022/01/13 04:00:58;;;;;;;0.05;0.05;;;;;;;;;;4858112;29;20494;-88
2022/01/13 04:03:24;;;;;;;0.10;0.10;;;;;;;;;;4861926;29;20050;-87
2022/01/13 04:06:04;;;;;;;0.10;0.10;;;;;;;;;;4861915;29;20110;-87
2022/01/13 04:08:30;;;;;;;0.00;0.00;;;;;;;;;;4816624;29;20041;-87
2022/01/13 04:11:06;;;;;;;0.10;0.10;;;;;;;;;;4861827;29;20506;-87
2022/01/13 04:16:27;;;;;;;0.10;0.10;;;;;;;;;;4863070;29;20053;-88
2022/01/13 04:18:54;;;;;;;0.10;0.10;;;;;;;;;;4831478;29;20506;-88
2022/01/13 04:21:20;;;;;;;0.10;0.10;;;;;;;;;;4831044;29;20053;-88
2022/01/13 04:23:46;;;;;;;0.10;0.10;;;;;;;;;;4831030;29;20120;-87
2022/01/13 04:26:12;;;;;;;0.10;0.10;;;;;;;;;;4861499;29;20125;-88
2022/01/13 04:28:40;;;;;;;0.17;0.17;;;;;;;;;;4831061;29;20335;-88
2022/01/13 04:31:06;;;;;;;0.10;0.10;;;;;;;;;;4861784;29;20053;-88
2022/01/13 04:33:33;;;;;;;0.10;0.10;;;;;;;;;;4861237;29;20045;-88
2022/01/13 04:35:59;;;;;;;0.10;0.10;;;;;;;;;;4830713;29;20056;-87
2022/01/13 04:38:25;;;;;;;0.10;0.10;;;;;;;;;;4861366;29;20609;-87
2022/01/13 04:41:00;;;;;;;0.00;0.00;;;;;;;;;;4830308;29;20144;-87
2022/01/13 04:43:26;;;;;;;0.10;0.10;;;;;;;;;;4816720;29;20056;-87
2022/01/13 04:45:52;;;;;;;0.10;0.10;;;;;;;;;;4815539;29;20046;-87
2022/01/13 04:48:18;;;;;;;0.10;0.10;;;;;;;;;;4830484;29;20049;-86
2022/01/13 04:50:44;;;;;;;0.00;0.00;;;;;;;;;;4830611;29;20090;-87
2022/01/13 04:53:10;;;;;;;0.10;0.10;;;;;;;;;;4861114;29;20441;-87
2022/01/13 04:55:37;;;;;;;0.10;0.10;;;;;;;;;;4830404;29;20049;-87
2022/01/13 04:58:03;;;;;;;0.10;0.10;;;;;;;;;;4861013;29;20124;-87
2022/01/13 05:00:29;;;;;;;0.10;0.10;;;;;;;;;;4830365;29;20364;-87
2022/01/13 05:02:55;;;;;;;0.10;0.10;;;;;;;;;;4830127;29;20041;-87
2022/01/13 05:05:21;;;;;;;0.10;0.10;;;;;;;;;;4815638;29;20045;-87
2022/01/13 05:07:48;;;;;;;0.10;0.10;;;;;;;;;;4860881;29;20109;-87
2022/01/13 05:10:14;;;;;;;0.10;0.10;;;;;;;;;;4860907;29;20048;-86
2022/01/13 05:12:44;;;;;;;0.10;0.10;;;;;;;;;;4829640;29;20038;-87
2022/01/13 05:15:15;;;;;;;0.47;0.47;;;;;;;;;;4830461;29;20101;-87
2022/01/13 05:18:05;;;;;;;0.10;0.10;;;;;;;;;;4830861;29;20053;-87
2022/01/13 05:20:40;;;;;;;0.10;0.10;;;;;;;;;;4860693;29;20059;-88
2022/01/13 05:23:06;;;;;;;0.10;0.10;;;;;;;;;;4830144;29;20122;-87
2022/01/13 05:25:32;;;;;;;0.10;0.10;;;;;;;;;;4814866;29;20406;-87
2022/01/13 05:27:58;;;;;;;0.10;0.10;;;;;;;;;;4830120;29;20045;-87
2022/01/13 05:30:24;;;;;;;0.10;0.10;;;;;;;;;;4829868;29;20396;-87
2022/01/13 05:32:50;;;;;;;0.10;0.10;;;;;;;;;;4860229;29;20080;-87
2022/01/13 05:35:16;;;;;;;0.10;0.10;;;;;;;;;;4829752;29;20101;-87
2022/01/13 05:37:43;;;;;;;0.10;0.10;;;;;;;;;;4830081;29;20045;-87
2022/01/13 05:40:10;;;;;;;0.10;0.10;;;;;;;;;;4814865;29;20073;-87
2022/01/13 05:42:36;;;;;;;0.10;0.10;;;;;;;;;;4814296;29;20061;-87
2022/01/13 05:45:03;;;;;;;0.10;0.10;;;;;;;;;;4860312;29;20347;-87
2022/01/13 05:47:29;;;;;;;0.10;0.10;;;;;;;;;;4829943;29;20152;-87
2022/01/13 05:49:54;;;;;;;0.10;0.10;;;;;;;;;;4860307;29;20496;-87
2022/01/13 05:52:20;;;;;;;0.00;0.00;;;;;;;;;;4860175;29;20520;-86
2022/01/13 05:54:46;;;;;;;0.10;0.10;;;;;;;;;;4829586;29;20045;-86
2022/01/13 05:57:12;;;;;;;0.10;0.10;;;;;;;;;;4860067;29;20045;-87
2022/01/13 05:59:38;;;;;;;0.10;0.10;;;;;;;;;;4829834;29;20057;-87
2022/01/13 06:02:04;;;;;;;0.10;0.10;;;;;;;;;;4829597;29;20426;-86
2022/01/13 06:04:30;;;;;;;0.10;0.10;;;;;;;;;;4829616;29;20064;-87
2022/01/13 06:06:56;;;;;;;0.10;0.10;;;;;;;;;;4860239;29;20049;-86
2022/01/13 06:09:22;;;;;;;0.45;0.45;;;;;;;;;;4829790;29;20071;-87
2022/01/13 06:11:58;;;;;;;0.10;0.10;;;;;;;;;;4814269;29;20049;-87
2022/01/13 06:14:24;;;;;;;0.10;0.10;;;;;;;;;;4830742;29;20049;-87
2022/01/13 06:16:50;;;;;;;0.10;0.10;;;;;;;;;;4829304;29;20133;-87
2022/01/13 06:19:16;;;;;;;0.10;0.10;;;;;;;;;;4829497;29;20068;-87
2022/01/13 06:21:42;;;;;;;0.00;0.00;;;;;;;;;;4829274;29;20082;-87
2022/01/13 06:24:08;;;;;;;0.10;0.10;;;;;;;;;;4828781;29;20041;-87
2022/01/13 06:26:34;;;;;;;0.10;0.10;;;;;;;;;;4814051;29;20053;-87
2022/01/13 06:29:00;;;;;;;0.10;0.10;;;;;;;;;;4859602;29;20053;-86
2022/01/13 06:31:26;;;;;;;0.10;0.10;;;;;;;;;;4859391;29;20073;-87
2022/01/13 06:33:52;;;;;;;0.10;0.10;;;;;;;;;;4829037;29;20084;-87
2022/01/13 06:36:17;;;;;;;0.10;0.10;;;;;;;;;;4859998;29;20060;-87
2022/01/13 06:38:48;;;;;;;0.30;0.30;;;;;;;;;;4829306;29;20086;-87
2022/01/13 06:41:14;;;;;;;0.10;0.10;;;;;;;;;;4859310;29;20064;-87
2022/01/13 06:43:40;;;;;;;0.10;0.10;;;;;;;;;;4813777;29;20042;-87
2022/01/13 06:46:06;;;;;;;0.10;0.10;;;;;;;;;;4859507;29;20053;-87
2022/01/13 06:48:32;;;;;;;0.10;0.10;;;;;;;;;;4829080;29;20045;-87
2022/01/13 06:50:58;;;;;;;0.10;0.10;;;;;;;;;;4828865;29;20052;-87
2022/01/13 06:53:24;;;;;;;0.10;0.10;;;;;;;;;;4828502;29;20549;-87
2022/01/13 06:55:51;;;;;;;0.10;0.10;;;;;;;;;;4859087;29;20049;-87
2022/01/13 06:58:17;;;;;;;0.10;0.10;;;;;;;;;;4829095;29;20499;-87
2022/01/13 07:00:43;;;;;;;0.10;0.10;;;;;;;;;;4813521;29;20076;-87
2022/01/13 07:03:09;;;;;;;0.10;0.10;;;;;;;;;;4828743;29;20379;-87
2022/01/13 07:05:35;;;;;;;0.10;0.10;;;;;;;;;;4813440;29;20070;-87
2022/01/13 07:08:02;;;;;;;0.10;0.10;;;;;;;;;;4828562;29;20041;-87
2022/01/13 07:10:28;;;;;;;0.10;0.10;;;;;;;;;;4828540;29;20089;-87
2022/01/13 07:12:54;;;;;;;0.10;0.10;;;;;;;;;;4828423;29;20159;-87
2022/01/13 07:15:20;;;;;;;0.10;0.10;;;;;;;;;;4859045;29;20049;-87
2022/01/13 07:17:46;;;;;;;0.10;0.10;;;;;;;;;;4828545;29;20046;-87
2022/01/13 07:20:12;;;;;;;0.10;0.10;;;;;;;;;;4858918;29;20498;-87
2022/01/13 07:22:38;;;;;;;0.10;0.10;;;;;;;;;;4828294;29;20132;-88
2022/01/13 07:25:05;;;;;;;0.10;0.10;;;;;;;;;;4828376;29;20125;-88
2022/01/13 07:27:30;;;;;;;0.10;0.10;;;;;;;;;;4813318;29;20336;-87
2022/01/13 07:29:56;;;;;;;0.10;0.10;;;;;;;;;;4859033;29;20136;-87
2022/01/13 07:32:22;;;;;;;0.10;0.10;;;;;;;;;;4813402;29;20045;-91
2022/01/13 07:34:48;;;;;;;0.10;0.10;;;;;;;;;;4828223;29;20041;-88
2022/01/13 07:37:15;;;;;;;0.10;0.10;;;;;;;;;;4827781;29;20048;-86
2022/01/13 07:39:40;;;;;;;0.10;0.10;;;;;;;;;;4858751;29;20395;-85
2022/01/13 07:42:07;;;;;;;0.15;0.13;;;;;;;;;;4858106;29;20113;-84
2022/01/13 07:44:33;;;;;;;0.10;0.10;;;;;;;;;;4858371;29;20090;-86
2022/01/13 07:47:00;;;;;;;0.10;0.10;;;;;;;;;;4828429;29;20041;-84
2022/01/13 07:49:26;;;;;;;0.10;0.10;;;;;;;;;;4858507;29;20053;-85
2022/01/13 07:51:52;;;;;;;0.10;0.10;;;;;;;;;;4827964;29;20132;-84
2022/01/13 07:54:18;;;;;;;0.10;0.10;;;;;;;;;;4858728;29;20132;-89
2022/01/13 07:56:44;;;;;;;0.10;0.10;;;;;;;;;;4813135;29;20045;-86
2022/01/13 07:59:10;;;;;;;0.10;0.10;;;;;;;;;;4827946;29;20049;-86
2022/01/13 08:01:36;;;;;;;0.10;0.10;;;;;;;;;;4827936;29;20056;-86
2022/01/13 08:04:02;;;;;;;0.10;0.10;;;;;;;;;;4812958;29;20038;-87
2022/01/13 08:06:28;;;;;;;0.10;0.10;;;;;;;;;;4827824;29;20048;-87
2022/01/13 08:08:54;;;;;;;0.10;0.10;;;;;;;;;;4828182;29;20049;-86
2022/01/13 08:11:20;;;;;;;0.10;0.10;;;;;;;;;;4858708;29;20069;-83
2022/01/13 08:13:46;;;;;;;0.10;0.10;;;;;;;;;;4858585;29;20126;-82
2022/01/13 08:16:12;;;;;;;0.10;0.10;;;;;;;;;;4843097;29;20060;-82
2022/01/13 08:21:23;;;;;;;0.10;0.10;;;;;;;;;;4844509;29;20046;-83
2022/01/13 08:23:50;;;;;;;0.10;0.10;;;;;;;;;;4832852;29;20101;-87
2022/01/13 08:26:16;;;;;;;0.10;0.10;;;;;;;;;;4844792;29;20189;-84
2022/01/13 08:28:42;;;;;;;0.10;0.10;;;;;;;;;;4866895;29;20505;-87
2022/01/13 08:31:08;;;;;;;0.00;0.00;;;;;;;;;;4858162;29;20082;-85
2022/01/13 08:33:34;;;;;;;0.00;0.00;;;;;;;;;;4827659;29;20045;-85
2022/01/13 08:36:00;;;;;;;0.10;0.10;;;;;;;;;;4828033;29;20046;-85
2022/01/13 08:38:26;;;;;;;0.10;0.10;;;;;;;;;;4827786;29;20049;-85
2022/01/13 08:40:57;;;;;;;0.10;0.10;;;;;;;;;;4857716;29;20065;-84
2022/01/13 08:43:22;;;;;;;0.20;0.20;;;;;;;;;;4843523;29;20113;-85
2022/01/13 08:45:48;;;;;;;0.10;0.10;;;;;;;;;;4857991;29;20046;-85
2022/01/13 08:48:15;;;;;;;0.10;0.10;;;;;;;;;;4829171;29;20068;-85
2022/01/13 08:50:41;;;;;;;0.10;0.10;;;;;;;;;;4831282;29;20443;-85
2022/01/13 08:53:07;;;;;;;0.10;0.10;;;;;;;;;;4861177;29;20041;-85
2022/01/13 08:55:33;;;;;;;0.10;0.10;;;;;;;;;;4830669;29;20242;-85
2022/01/13 08:57:59;;;;;;;0.55;0.30;;;;;;;;;;4861465;29;20050;-85
2022/01/13 09:00:25;;;;;;;0.10;0.10;;;;;;;;;;4815934;29;20084;-85
2022/01/13 09:02:51;;;;;;;0.30;0.30;;;;;;;;;;4861168;29;20049;-85
2022/01/13 09:05:18;;;;;;;0.10;0.10;;;;;;;;;;4861368;29;20460;-85
2022/01/13 09:07:44;;;;;;;0.10;0.10;;;;;;;;;;4830454;29;20046;-85
2022/01/13 09:10:10;;;;;;;0.30;0.30;;;;;;;;;;4845911;29;20096;-85
2022/01/13 09:12:36;;;;;;;0.10;0.10;;;;;;;;;;4815364;29;20045;-85
2022/01/13 09:15:03;;;;;;;0.10;0.10;;;;;;;;;;4860943;29;20383;-84
2022/01/13 09:17:29;;;;;;;0.10;0.10;;;;;;;;;;4861076;29;20057;-84
2022/01/13 09:19:55;;;;;;;0.10;0.10;;;;;;;;;;4830310;29;20097;-85
2022/01/13 09:22:21;;;;;;;0.10;0.10;;;;;;;;;;4860695;29;20049;-85
2022/01/13 09:24:47;;;;;;;0.10;0.10;;;;;;;;;;4815128;29;20081;-85
2022/01/13 09:27:13;;;;;;;0.10;0.10;;;;;;;;;;4861113;29;20045;-85
2022/01/13 09:29:39;;;;;;;0.10;0.10;;;;;;;;;;4829973;29;20045;-85
2022/01/13 09:32:05;;;;;;;0.10;0.10;;;;;;;;;;4861929;29;20042;-85
2022/01/13 09:34:31;;;;;;;0.10;0.10;;;;;;;;;;4860598;29;20041;-85
2022/01/13 09:36:57;;;;;;;0.03;0.03;;;;;;;;;;4860413;29;20395;-85
2022/01/13 09:39:23;;;;;;;0.10;0.10;;;;;;;;;;4860794;29;20049;-86
2022/01/13 09:41:49;;;;;;;0.13;0.13;;;;;;;;;;4860146;29;20074;-85
2022/01/13 09:44:15;;;;;;;0.10;0.10;;;;;;;;;;4814939;29;20046;-85
2022/01/13 09:46:41;;;;;;;0.10;0.10;;;;;;;;;;4860374;29;20076;-85
2022/01/13 09:49:08;;;;;;;0.10;0.10;;;;;;;;;;4829829;29;20105;-85
2022/01/13 09:51:34;;;;;;;0.10;0.10;;;;;;;;;;4829805;29;20121;-85
2022/01/13 09:54:00;;;;;;;0.10;0.10;;;;;;;;;;4829904;29;20189;-85
2022/01/13 09:56:26;;;;;;;0.10;0.10;;;;;;;;;;4829936;29;20208;-85
2022/01/13 09:58:52;;;;;;;0.10;0.10;;;;;;;;;;4829257;29;20165;-85
2022/01/13 10:01:18;;;;;;;0.10;0.10;;;;;;;;;;4829295;29;20499;-85
2022/01/13 10:03:45;;;;;;;0.10;0.10;;;;;;;;;;4860112;29;20146;-85
2022/01/13 10:06:11;;;;;;;0.10;0.10;;;;;;;;;;4861269;29;20046;-85
2022/01/13 10:08:43;;;;;;;0.10;0.10;;;;;;;;;;4844717;29;20060;-85
2022/01/13 10:11:28;;;;;;;0.10;0.10;;;;;;;;;;4860206;29;20053;-85
2022/01/13 10:16:53;;;;;;;0.10;0.10;;;;;;;;;;4860878;29;20050;-85
2022/01/13 10:19:29;;;;;;;0.10;0.10;;;;;;;;;;4859933;29;20077;-85
2022/01/13 10:21:59;;;;;;;0.10;0.10;;;;;;;;;;4829169;29;20410;-85
2022/01/13 10:24:26;;;;;;;0.10;0.10;;;;;;;;;;4829439;29;20053;-85
2022/01/13 10:27:00;;;;;;;0.10;0.10;;;;;;;;;;4859738;29;20065;-85
2022/01/13 10:29:44;;;;;;;0.10;0.10;;;;;;;;;;4860142;29;20050;-85
2022/01/13 10:32:11;;;;;;;0.32;0.28;;;;;;;;;;4859599;29;20064;-85
2022/01/13 10:34:39;;;;;;;0.10;0.10;;;;;;;;;;4829377;29;20050;-85
2022/01/13 10:37:10;;;;;;;0.10;0.10;;;;;;;;;;4859516;29;20163;-85
2022/01/13 10:39:50;;;;;;;0.10;0.10;;;;;;;;;;4828923;29;20506;-85
2022/01/13 10:43:06;;;;;;;0.10;0.10;;;;;;;;;;4813660;29;20086;-85
2022/01/13 10:45:27;;;;;;;0.10;0.10;;;;;;;;;;4860515;29;20046;-85
2022/01/13 10:48:04;;;;;;;0.10;0.10;;;;;;;;;;4859530;29;20048;-85
2022/01/13 10:50:33;;;;;;;0.10;0.10;;;;;;;;;;4828890;29;20046;-85
2022/01/13 10:53:02;;;;;;;0.10;0.10;;;;;;;;;;4859007;29;20125;-85
2022/01/13 10:55:28;;;;;;;1.10;0.63;;;;;;;;;;4844070;29;20041;-85
2022/01/13 10:57:54;;;;;;;0.10;0.10;;;;;;;;;;4813637;29;20049;-85
2022/01/13 11:00:22;;;;;;;0.10;0.10;;;;;;;;;;4859161;29;20053;-85
2022/01/13 11:03:00;;;;;;;0.10;0.10;;;;;;;;;;4813316;29;20041;-84
2022/01/13 11:05:26;;;;;;;0.10;0.10;;;;;;;;;;4859282;29;20072;-85
2022/01/13 11:07:52;;;;;;;0.10;0.10;;;;;;;;;;4829123;29;20177;-85
2022/01/13 11:10:18;;;;;;;0.10;0.10;;;;;;;;;;4858656;29;20128;-85
2022/01/13 11:12:45;;;;;;;0.15;0.15;;;;;;;;;;4827689;29;20053;-85
2022/01/13 11:15:14;;;;;;;0.10;0.10;;;;;;;;;;4858764;29;20053;-85
2022/01/13 11:17:41;;;;;;;0.13;0.13;;;;;;;;;;4828665;29;20042;-85
2022/01/13 11:20:11;;;;;;;0.10;0.10;;;;;;;;;;4828651;29;20438;-85
2022/01/13 11:22:38;;;;;;;0.10;0.10;;;;;;;;;;4813118;29;20109;-85
2022/01/13 11:25:04;;;;;;;0.10;0.10;;;;;;;;;;4858644;29;20490;-85
2022/01/13 11:27:30;;;;;;;0.10;0.10;;;;;;;;;;4813216;29;20040;-86
2022/01/13 11:29:56;;;;;;;0.10;0.10;;;;;;;;;;4858858;29;20049;-85
2022/01/13 11:32:23;;;;;;;0.10;0.10;;;;;;;;;;4858472;29;20049;-85
2022/01/13 11:34:49;;;;;;;0.10;0.10;;;;;;;;;;4828205;29;20072;-86
2022/01/13 11:37:15;;;;;;;0.10;0.10;;;;;;;;;;4828609;29;20228;-85
2022/01/13 11:39:42;;;;;;;0.20;0.20;;;;;;;;;;4828413;29;20045;-85
2022/01/13 11:42:08;;;;;;;1.30;0.25;;;;;;;;;;4859432;29;20058;-85
2022/01/13 11:44:35;;;;;;;0.10;0.10;;;;;;;;;;4858332;29;20085;-85
2022/01/13 11:47:01;;;;;;;0.30;0.30;;;;;;;;;;4828105;29;20121;-85
2022/01/13 11:50:04;;;;;;;0.10;0.10;;;;;;;;;;4858494;29;20046;-85
2022/01/13 11:52:48;;;;;;;0.10;0.10;;;;;;;;;;4830889;29;20057;-84
2022/01/13 11:55:27;;;;;;;0.10;0.10;;;;;;;;;;4827920;29;20080;-85
2022/01/13 11:57:53;;;;;;;0.55;0.10;;;;;;;;;;4827867;29;20454;-85
2022/01/13 12:00:21;;;;;;;0.10;0.10;;;;;;;;;;4827800;29;20049;-86
2022/01/13 12:02:47;;;;;;;0.10;0.10;;;;;;;;;;4812744;29;20041;-85
2022/01/13 12:05:17;;;;;;;0.30;0.30;;;;;;;;;;4858171;29;20050;-85
2022/01/13 12:07:47;;;;;;;0.20;0.20;;;;;;;;;;4858522;29;20049;-85
2022/01/13 12:10:25;;;;;;;0.10;0.10;;;;;;;;;;4828045;29;20049;-86
2022/01/13 12:12:51;;;;;;;0.45;0.45;;;;;;;;;;4859615;29;20129;-85
2022/01/13 12:15:27;;;;;;;0.10;0.10;;;;;;;;;;4858113;29;20133;-85
2022/01/13 12:17:56;;;;;;;0.10;0.10;;;;;;;;;;4827849;29;20046;-85
2022/01/13 12:20:22;;;;;;;0.10;0.10;;;;;;;;;;4827753;29;20124;-85
2022/01/13 12:23:30;;;;;;;0.10;0.10;;;;;;;;;;4859341;29;20064;-85
2022/01/13 12:25:37;;;;;;;0.10;0.10;;;;;;;;;;4857745;29;20045;-85
2022/01/13 12:28:13;;;;;;;0.10;0.10;;;;;;;;;;4846411;29;20041;-84
2022/01/13 12:30:40;;;;;;;0.10;0.10;;;;;;;;;;4831380;29;20037;-85
2022/01/13 12:33:07;;;;;;;0.10;0.10;;;;;;;;;;4831022;29;20060;-86
2022/01/13 12:35:39;;;;;;;0.25;0.25;;;;;;;;;;4816310;29;20045;-85
2022/01/13 12:38:06;;;;;;;0.10;0.10;;;;;;;;;;4861620;29;20049;-85
2022/01/13 12:40:41;;;;;;;0.10;0.10;;;;;;;;;;4830995;29;20049;-85
2022/01/13 12:43:21;;;;;;;0.10;0.10;;;;;;;;;;4846063;29;20050;-85
2022/01/13 12:45:47;;;;;;;0.10;0.10;;;;;;;;;;4830985;29;20410;-85
2022/01/13 12:48:13;;;;;;;0.15;0.15;;;;;;;;;;4830605;29;20045;-85
2022/01/13 12:50:39;;;;;;;0.10;0.10;;;;;;;;;;4815821;29;20626;-83
2022/01/13 12:53:08;;;;;;;1.60;0.30;;;;;;;;;;4846229;29;20049;-85
2022/01/13 12:55:35;;;;;;;0.10;0.10;;;;;;;;;;4861708;29;20249;-85
2022/01/13 12:58:01;;;;;;;0.10;0.10;;;;;;;;;;4830855;29;20549;-85
2022/01/13 13:00:27;;;;;;;0.10;0.10;;;;;;;;;;4830675;29;20072;-85
2022/01/13 13:02:54;;;;;;;0.20;0.20;;;;;;;;;;4861144;29;20386;-85
2022/01/13 13:05:28;;;;;;;0.10;0.10;;;;;;;;;;4861111;29;20050;-85
2022/01/13 13:07:54;;;;;;;0.10;0.10;;;;;;;;;;4861164;29;20042;-84
2022/01/13 13:10:20;;;;;;;0.10;0.10;;;;;;;;;;4830573;29;20391;-85
2022/01/13 13:12:56;;;;;;;0.10;0.10;;;;;;;;;;4830194;29;20049;-85
2022/01/13 13:17:51;;;;;;;0.10;0.10;;;;;;;;;;4851133;29;20053;-84
2022/01/13 13:20:34;;;;;;;0.10;0.10;;;;;;;;;;4837696;29;20241;-84
2022/01/13 13:23:03;;;;;;;0.10;0.10;;;;;;;;;;4832000;29;20077;-85
2022/01/13 13:25:33;;;;;;;0.30;0.30;;;;;;;;;;4830510;29;20037;-85
2022/01/13 13:28:18;;;;;;;0.10;0.10;;;;;;;;;;4830093;29;20041;-85
2022/01/13 13:30:47;;;;;;;0.10;0.10;;;;;;;;;;4860939;29;20045;-85
2022/01/13 13:33:13;;;;;;;0.10;0.10;;;;;;;;;;4860558;29;20045;-86
2022/01/13 13:35:39;;;;;;;0.20;0.20;;;;;;;;;;4829091;29;20033;-85
2022/01/13 13:38:10;;;;;;;0.32;0.32;;;;;;;;;;4860821;29;20041;-85
2022/01/13 13:40:42;;;;;;;0.10;0.10;;;;;;;;;;4860546;29;20068;-85
2022/01/13 13:43:07;;;;;;;0.10;0.10;;;;;;;;;;4860474;29;20089;-86
2022/01/13 13:45:33;;;;;;;0.25;0.25;;;;;;;;;;4860753;29;20084;-85
2022/01/13 13:47:59;;;;;;;0.10;0.10;;;;;;;;;;4860626;29;20193;-85
2022/01/13 13:50:25;;;;;;;0.00;0.00;;;;;;;;;;4829861;29;20042;-85
2022/01/13 13:53:07;;;;;;;0.10;0.10;;;;;;;;;;4860460;29;20193;-85
2022/01/13 13:55:34;;;;;;;0.10;0.10;;;;;;;;;;4830170;29;20049;-85
2022/01/13 13:58:00;;;;;;;0.10;0.10;;;;;;;;;;4829712;29;20041;-85
2022/01/13 14:00:28;;;;;;;0.22;0.22;;;;;;;;;;4829690;29;20391;-86
2022/01/13 14:02:56;;;;;;;0.10;0.10;;;;;;;;;;4859874;29;20045;-85
2022/01/13 14:05:26;;;;;;;0.10;0.10;;;;;;;;;;4814595;29;20045;-85
2022/01/13 14:07:52;;;;;;;0.10;0.10;;;;;;;;;;4860196;29;20065;-85
2022/01/13 14:10:22;;;;;;;1.20;0.32;;;;;;;;;;4829535;29;20045;-85
2022/01/13 14:12:55;;;;;;;0.10;0.10;;;;;;;;;;4829554;29;20057;-85
2022/01/13 14:15:30;;;;;;;0.20;0.20;;;;;;;;;;4829746;29;20106;-85
2022/01/13 14:17:56;;;;;;;0.10;0.10;;;;;;;;;;4859870;29;20140;-85
2022/01/13 14:20:23;;;;;;;0.10;0.10;;;;;;;;;;4829574;29;20085;-85
2022/01/13 14:23:02;;;;;;;0.10;0.10;;;;;;;;;;4859718;29;20046;-85
2022/01/13 14:25:32;;;;;;;0.10;0.10;;;;;;;;;;4829270;29;20046;-85
2022/01/13 14:27:59;;;;;;;0.10;0.10;;;;;;;;;;4829365;29;20045;-85
2022/01/13 14:30:27;;;;;;;0.10;0.10;;;;;;;;;;4814224;29;20049;-85
2022/01/13 14:33:11;;;;;;;0.10;0.10;;;;;;;;;;4814299;29;20065;-85
2022/01/13 14:35:37;;;;;;;0.10;0.10;;;;;;;;;;4814108;29;20140;-85
2022/01/13 14:38:03;;;;;;;0.15;0.15;;;;;;;;;;4859830;29;20118;-85
2022/01/13 14:40:29;;;;;;;0.10;0.10;;;;;;;;;;4828725;29;20050;-85
2022/01/13 14:43:05;;;;;;;0.10;0.10;;;;;;;;;;4813882;29;20053;-85
2022/01/13 14:45:31;;;;;;;0.20;0.20;;;;;;;;;;4813717;29;20083;-85
2022/01/13 14:47:57;;;;;;;0.10;0.10;;;;;;;;;;4829026;29;20463;-85
2022/01/13 14:50:23;;;;;;;0.40;0.35;;;;;;;;;;4828928;29;20109;-85
2022/01/13 14:52:49;;;;;;;0.10;0.10;;;;;;;;;;4828835;29;20049;-85
2022/01/13 14:55:15;;;;;;;0.10;0.10;;;;;;;;;;4859292;29;20042;-86
2022/01/13 14:57:41;;;;;;;0.10;0.10;;;;;;;;;;4828935;29;20076;-85
2022/01/13 15:00:08;;;;;;;0.20;0.20;;;;;;;;;;4813741;29;20053;-85
2022/01/13 15:02:34;;;;;;;0.10;0.10;;;;;;;;;;4859246;29;20180;-85
2022/01/13 15:05:00;;;;;;;0.20;0.20;;;;;;;;;;4813692;29;20042;-85
2022/01/13 15:07:26;;;;;;;0.90;0.20;;;;;;;;;;4828795;29;20108;-85
2022/01/13 15:09:51;;;;;;;0.30;0.30;;;;;;;;;;4859077;29;20045;-85